createdAt,value
2022-11-01T00:01:53.733Z,96802.88
2022-11-01T00:04:20.711Z,96790.84
2022-11-01T00:06:47.454Z,96792.91
2022-11-01T00:09:13.991Z,96787.53
2022-11-01T00:11:40.425Z,96785.31
2022-11-01T00:14:07.935Z,96782.28
2022-11-01T00:16:34.457Z,96782.69
2022-11-01T00:19:00.837Z,96790.03
2022-11-01T00:21:27.298Z,96799.31
2022-11-01T00:23:53.727Z,96794.66
2022-11-01T00:26:22.350Z,96774.13
2022-11-01T00:28:49.524Z,96786.72
2022-11-01T00:31:17.996Z,96779.75
2022-11-01T00:33:44.477Z,96779.03
2022-11-01T00:36:10.894Z,96757.78
2022-11-01T00:38:37.487Z,96766.78
2022-11-01T00:41:04.540Z,96740.25
2022-11-01T00:43:35.324Z,96743.78
2022-11-01T00:46:02.094Z,96750.03
2022-11-01T00:48:29.111Z,96748.03
2022-11-01T00:50:55.705Z,96750.69
2022-11-01T00:53:22.185Z,96760.50
2022-11-01T00:55:48.656Z,96772.50
2022-11-01T00:58:15.088Z,96785.53
2022-11-01T01:00:41.722Z,96765.78
2022-11-01T01:03:08.443Z,96762.72
2022-11-01T01:05:35.967Z,96773.13
2022-11-01T01:08:03.012Z,96776.16
2022-11-01T01:10:29.387Z,96774.53
2022-11-01T01:12:56.019Z,96760.28
2022-11-01T01:15:22.427Z,96798.56
2022-11-01T01:17:48.823Z,96787.97
2022-11-01T01:20:15.294Z,96783.91
2022-11-01T01:22:42.541Z,96788.56
2022-11-01T01:25:10.287Z,96789.19
2022-11-01T01:27:36.708Z,96796.47
2022-11-01T01:30:05.357Z,96806.25
2022-11-01T01:32:31.831Z,96793.66
2022-11-01T01:34:58.314Z,96801.78
2022-11-01T01:37:24.887Z,96811.06
2022-11-01T01:39:51.307Z,96807.47
2022-11-01T01:42:23.724Z,96796.06
2022-11-01T01:44:55.964Z,96787.53
2022-11-01T01:47:31.893Z,96803.00
2022-11-01T01:50:15.032Z,96813.59
2022-11-01T01:52:51.069Z,96816.81
2022-11-01T01:55:26.543Z,96830.47
2022-11-01T01:57:55.516Z,96824.09
2022-11-01T02:00:22.415Z,96828.16
2022-11-01T02:02:48.912Z,96835.91
2022-11-01T02:05:29.266Z,96826.56
2022-11-01T02:07:56.749Z,96813.16
2022-11-01T02:10:23.612Z,96816.41
2022-11-01T02:12:50.385Z,96821.69
2022-11-01T02:15:18.906Z,96826.19
2022-11-01T02:17:57.065Z,96812.38
2022-11-01T02:20:49.033Z,96820.50
2022-11-01T02:23:30.316Z,96812.75
2022-11-01T02:26:19.745Z,96823.97
2022-11-01T02:29:03.259Z,96814.84
2022-11-01T02:31:56.324Z,96822.31
2022-11-01T02:34:29.683Z,96823.63
2022-11-01T02:37:20.502Z,96832.72
2022-11-01T02:39:54.238Z,96847.41
2022-11-01T02:42:33.033Z,96841.72
2022-11-01T02:45:11.003Z,96847.41
2022-11-01T02:47:40.186Z,96842.53
2022-11-01T02:50:10.674Z,96823.97
2022-11-01T02:52:39.040Z,96857.84
2022-11-01T02:55:29.746Z,96854.00
2022-11-01T02:58:04.492Z,96852.38
2022-11-01T03:00:35.263Z,96854.63
2022-11-01T03:03:16.757Z,96862.78
2022-11-01T03:05:54.972Z,96856.06
2022-11-01T03:08:29.933Z,96860.16
2022-11-01T03:11:17.811Z,96871.19
2022-11-01T03:13:50.152Z,96868.34
2022-11-01T03:16:34.360Z,96883.59
2022-11-01T03:19:18.861Z,96883.38
2022-11-01T03:22:02.446Z,96900.09
2022-11-01T03:24:33.148Z,96892.50
2022-11-01T03:27:34.060Z,96893.94
2022-11-01T03:30:18.579Z,96898.16
2022-11-01T03:32:47.573Z,96892.94
2022-11-01T03:35:19.547Z,96905.78
2022-11-01T03:37:48.868Z,96909.44
2022-11-01T03:40:17.999Z,96907.84
2022-11-01T03:42:48.995Z,96889.00
2022-11-01T03:47:54.321Z,96912.78
2022-11-01T03:50:24.424Z,96901.22
2022-11-01T03:52:51.062Z,96899.25
2022-11-01T03:55:19.297Z,96887.56
2022-11-01T03:57:51.037Z,96885.78
2022-11-01T04:00:23.465Z,96895.97
2022-11-01T04:02:51.841Z,96893.75
2022-11-01T04:05:19.136Z,96876.22
2022-11-01T04:07:45.886Z,96886.69
2022-11-01T04:10:13.451Z,96914.41
2022-11-01T04:12:40.375Z,96943.38
2022-11-01T04:15:26.398Z,96962.16
2022-11-01T04:21:22.506Z,96977.22
2022-11-01T04:23:49.318Z,96963.34
2022-11-01T04:26:21.032Z,96962.19
2022-11-01T04:28:59.283Z,96943.06
2022-11-01T04:31:30.114Z,96872.91
2022-11-01T04:33:57.484Z,96880.63
2022-11-01T04:36:24.683Z,96934.41
2022-11-01T04:38:52.710Z,96951.41
2022-11-01T04:41:19.841Z,96975.31
2022-11-01T04:43:47.550Z,96995.75
2022-11-01T04:46:14.669Z,97039.50
2022-11-01T04:48:41.633Z,97036.22
2022-11-01T04:51:09.195Z,97070.56
2022-11-01T04:53:36.060Z,97091.91
2022-11-01T04:56:04.785Z,97096.00
2022-11-01T04:58:31.400Z,97122.25
2022-11-01T05:00:57.859Z,97135.75
2022-11-01T05:03:25.378Z,97154.56
2022-11-01T05:05:52.022Z,97159.88
2022-11-01T05:08:18.468Z,97179.53
2022-11-01T05:10:45.025Z,97187.53
2022-11-01T05:13:13.008Z,97217.22
2022-11-01T05:15:39.962Z,97226.63
2022-11-01T05:18:14.454Z,97233.97
2022-11-01T05:20:40.966Z,97244.22
2022-11-01T05:23:07.367Z,97238.06
2022-11-01T05:25:37.057Z,97246.69
2022-11-01T05:28:11.861Z,97268.00
2022-11-01T05:30:38.971Z,97275.78
2022-11-01T05:33:07.439Z,97286.81
2022-11-01T05:35:35.898Z,97283.97
2022-11-01T05:38:04.188Z,97291.75
2022-11-01T05:40:31.189Z,97282.56
2022-11-01T05:42:58.250Z,97291.78
2022-11-01T05:45:24.902Z,97287.50
2022-11-01T05:47:51.320Z,97292.22
2022-11-01T05:50:18.053Z,97284.03
2022-11-01T05:52:44.443Z,97265.22
2022-11-01T05:55:11.700Z,97278.69
2022-11-01T05:57:38.248Z,97274.41
2022-11-01T06:00:06.375Z,97267.25
2022-11-01T06:02:33.029Z,97250.88
2022-11-01T06:05:02.798Z,97256.22
2022-11-01T06:07:29.664Z,97234.06
2022-11-01T06:09:56.151Z,97228.78
2022-11-01T06:12:25.595Z,97198.28
2022-11-01T06:14:52.320Z,97222.19
2022-11-01T06:17:19.087Z,97213.22
2022-11-01T06:19:45.573Z,97208.69
2022-11-01T06:22:12.033Z,97207.69
2022-11-01T06:24:38.561Z,97183.34
2022-11-01T06:27:08.583Z,97185.38
2022-11-01T06:29:36.464Z,97178.22
2022-11-01T06:32:04.833Z,97170.03
2022-11-01T06:34:31.615Z,97155.94
2022-11-01T06:36:58.349Z,97159.16
2022-11-01T06:39:24.895Z,97135.06
2022-11-01T06:41:51.766Z,97149.97
2022-11-01T06:44:18.328Z,97123.84
2022-11-01T06:46:44.718Z,97157.59
2022-11-01T06:49:16.322Z,97126.06
2022-11-01T06:51:45.433Z,97133.00
2022-11-01T06:54:11.890Z,97103.38
2022-11-01T06:56:38.552Z,97108.06
2022-11-01T06:59:05.021Z,97106.00
2022-11-01T07:01:31.601Z,97106.00
2022-11-01T07:03:58.126Z,97072.53
2022-11-01T07:06:28.645Z,97102.75
2022-11-01T07:08:55.544Z,97099.69
2022-11-01T07:11:25.193Z,97106.00
2022-11-01T07:13:53.899Z,97111.31
2022-11-01T07:16:20.402Z,97098.44
2022-11-01T07:18:46.890Z,97107.19
2022-11-01T07:21:13.299Z,97118.28
2022-11-01T07:23:39.870Z,97125.22
2022-11-01T07:26:06.275Z,97146.50
2022-11-01T07:28:32.755Z,97153.03
2022-11-01T07:30:59.131Z,97158.38
2022-11-01T07:33:25.662Z,97148.94
2022-11-01T07:35:52.989Z,97166.53
2022-11-01T07:38:19.705Z,97165.31
2022-11-01T07:40:49.522Z,97173.09
2022-11-01T07:43:17.466Z,97157.97
2022-11-01T07:45:44.266Z,97158.78
2022-11-01T07:48:13.096Z,97176.41
2022-11-01T07:50:41.007Z,97182.31
2022-11-01T07:53:13.487Z,97180.44
2022-11-01T07:55:40.412Z,97182.06
2022-11-01T07:58:07.806Z,97195.19
2022-11-01T08:03:10.924Z,97211.72
2022-11-01T08:05:38.034Z,97208.22
2022-11-01T08:08:06.158Z,97221.00
2022-11-01T08:10:33.838Z,97252.06
2022-11-01T08:13:05.982Z,97241.44
2022-11-01T08:15:33.657Z,97249.22
2022-11-01T08:18:01.324Z,97242.28
2022-11-01T08:20:28.305Z,97256.38
2022-11-01T08:22:54.889Z,97248.44
2022-11-01T08:25:21.816Z,97262.13
2022-11-01T08:27:48.278Z,97252.50
2022-11-01T08:30:17.617Z,97258.03
2022-11-01T08:32:44.534Z,97248.22
2022-11-01T08:35:13.878Z,97248.81
2022-11-01T08:37:53.215Z,97257.00
2022-11-01T08:40:20.981Z,97283.38
2022-11-01T08:42:47.997Z,97289.72
2022-11-01T08:45:15.525Z,97277.47
2022-11-01T08:47:42.090Z,97272.09
2022-11-01T08:50:11.388Z,97302.00
2022-11-01T08:52:38.368Z,97295.44
2022-11-01T08:55:05.497Z,97302.75
2022-11-01T08:57:32.332Z,97300.16
2022-11-01T08:59:59.033Z,97321.88
2022-11-01T09:02:26.007Z,97315.38
2022-11-01T09:04:52.829Z,97333.28
2022-11-01T09:07:19.245Z,97378.97
2022-11-01T09:09:46.535Z,97383.53
2022-11-01T09:12:14.827Z,97402.75
2022-11-01T09:14:41.689Z,97417.88
2022-11-01T09:17:08.672Z,97430.56
2022-11-01T09:19:35.085Z,97418.75
2022-11-01T09:22:01.501Z,97460.63
2022-11-01T09:24:27.935Z,97459.63
2022-11-01T09:26:54.883Z,97468.84
2022-11-01T09:29:21.545Z,97469.66
2022-11-01T09:31:52.813Z,97486.16
2022-11-01T09:34:20.352Z,97470.25
2022-11-01T09:36:47.682Z,97499.94
2022-11-01T09:39:16.391Z,97486.13
2022-11-01T09:41:47.778Z,97470.72
2022-11-01T09:44:25.514Z,97508.38
2022-11-01T09:46:59.619Z,97513.59
2022-11-01T09:49:33.280Z,97524.81
2022-11-01T09:51:59.954Z,97542.22
2022-11-01T09:54:28.456Z,97549.06
2022-11-01T09:57:34.441Z,97544.22
2022-11-01T10:00:07.900Z,97532.88
2022-11-01T10:03:05.375Z,97534.03
2022-11-01T10:05:39.769Z,97559.66
2022-11-01T10:08:24.951Z,97478.72
2022-11-01T10:11:27.059Z,97365.16
2022-11-01T10:14:31.054Z,97406.16
2022-11-01T10:17:06.412Z,97454.94
2022-11-01T10:19:35.429Z,97426.66
2022-11-01T10:22:13.462Z,97412.28
2022-11-01T10:25:01.976Z,97449.06
2022-11-01T10:27:53.549Z,97452.34
2022-11-01T10:30:20.561Z,97467.34
2022-11-01T10:33:02.332Z,97479.66
2022-11-01T10:35:33.312Z,97507.41
2022-11-01T10:38:49.610Z,97537.81
2022-11-01T10:41:29.630Z,97563.81
2022-11-01T10:44:02.281Z,97543.13
2022-11-01T10:46:37.681Z,97565.19
2022-11-01T10:49:10.926Z,97574.75
2022-11-01T10:51:37.545Z,97585.91
2022-11-01T10:54:11.189Z,97604.69
2022-11-01T10:56:43.592Z,97615.41
2022-11-01T10:59:20.838Z,97606.00
2022-11-01T11:01:50.392Z,97622.25
2022-11-01T11:04:21.560Z,97667.75
2022-11-01T11:06:48.610Z,97703.88
2022-11-01T11:09:19.963Z,97739.09
2022-11-01T11:11:48.753Z,97777.31
2022-11-01T11:14:17.519Z,97814.97
2022-11-01T11:16:49.228Z,97791.84
2022-11-01T11:19:34.381Z,97761.47
2022-11-01T11:22:05.135Z,97799.19
2022-11-01T11:24:33.455Z,97806.66
2022-11-01T11:27:02.629Z,97802.72
2022-11-01T11:29:36.722Z,97790.34
2022-11-01T11:32:05.008Z,97817.22
2022-11-01T11:34:38.012Z,97852.69
2022-11-01T11:37:07.284Z,97861.69
2022-11-01T11:39:36.757Z,97848.94
2022-11-01T11:42:17.501Z,97906.06
2022-11-01T11:44:52.049Z,97977.31
2022-11-01T11:47:36.363Z,98000.56
2022-11-01T11:50:19.345Z,98040.16
2022-11-01T11:52:49.102Z,98101.53
2022-11-01T11:55:36.666Z,98121.63
2022-11-01T11:58:05.885Z,98148.25
2022-11-01T12:00:37.529Z,98227.03
2022-11-01T12:03:07.995Z,98235.09
2022-11-01T12:05:34.870Z,98223.16
2022-11-01T12:08:01.389Z,98288.09
2022-11-01T12:10:34.281Z,98311.66
2022-11-01T12:13:03.030Z,98334.84
2022-11-01T12:15:38.341Z,98359.06
2022-11-01T12:18:16.022Z,98362.22
2022-11-01T12:20:47.996Z,98408.78
2022-11-01T12:23:33.030Z,98459.34
2022-11-01T12:26:04.642Z,98502.00
2022-11-01T12:28:47.711Z,98544.59
2022-11-01T12:31:17.995Z,98709.06
2022-11-01T12:33:55.924Z,99019.75
2022-11-01T12:36:30.568Z,99054.63
2022-11-01T12:39:10.336Z,99083.59
2022-11-01T12:41:44.043Z,99089.19
2022-11-01T12:44:20.785Z,99080.44
2022-11-01T12:47:19.781Z,99096.66
2022-11-01T12:50:07.590Z,99094.59
2022-11-01T12:52:47.554Z,99080.06
2022-11-01T12:55:32.244Z,99082.16
2022-11-01T12:57:59.449Z,99063.88
2022-11-01T13:00:36.065Z,99060.25
2022-11-01T13:03:18.054Z,99076.56
2022-11-01T13:06:05.235Z,99068.72
2022-11-01T13:08:47.917Z,99061.09
2022-11-01T13:11:42.951Z,99039.19
2022-11-01T13:14:12.315Z,99075.69
2022-11-01T13:16:45.824Z,99073.69
2022-11-01T13:19:47.568Z,99088.94
2022-11-01T13:22:18.629Z,99081.94
2022-11-01T13:24:57.031Z,99074.47
2022-11-01T13:27:32.910Z,99079.41
2022-11-01T13:30:15.122Z,99078.31
2022-11-01T13:33:06.020Z,99077.88
2022-11-01T13:35:57.332Z,99084.22
2022-11-01T13:38:30.198Z,98988.81
2022-11-01T13:41:07.885Z,99001.69
2022-11-01T13:43:41.369Z,98961.38
2022-11-01T13:46:23.890Z,98991.28
2022-11-01T13:49:08.681Z,98914.72
2022-11-01T13:51:35.010Z,98887.44
2022-11-01T13:54:03.448Z,98843.41
2022-11-01T13:56:50.123Z,98847.66
2022-11-01T13:59:45.313Z,98840.59
2022-11-01T14:02:24.183Z,98841.78
2022-11-01T14:05:10.780Z,98856.69
2022-11-01T14:07:44.604Z,98833.91
2022-11-01T14:10:16.975Z,98873.06
2022-11-01T14:12:48.309Z,98867.28
2022-11-01T14:15:27.508Z,98881.66
2022-11-01T14:17:57.912Z,98873.34
2022-11-01T14:20:28.023Z,98893.94
2022-11-01T14:22:56.269Z,98884.75
2022-11-01T14:25:22.615Z,98922.47
2022-11-01T14:27:52.067Z,98917.44
2022-11-01T14:30:22.027Z,98932.53
2022-11-01T14:33:03.174Z,98938.53
2022-11-01T14:35:37.402Z,98925.81
2022-11-01T14:38:10.076Z,98930.63
2022-11-01T14:40:48.708Z,98922.13
2022-11-01T14:43:22.944Z,98948.19
2022-11-01T14:46:04.961Z,98946.63
2022-11-01T14:48:53.326Z,98945.63
2022-11-01T14:51:28.302Z,98950.84
2022-11-01T14:54:20.170Z,98969.03
2022-11-01T14:56:54.990Z,98983.31
2022-11-01T14:59:29.244Z,98993.94
2022-11-01T15:02:02.927Z,99004.31
2022-11-01T15:04:42.241Z,99006.69
2022-11-01T15:07:19.830Z,99009.69
2022-11-01T15:10:02.821Z,99025.63
2022-11-01T15:12:35.834Z,99028.34
2022-11-01T15:15:02.875Z,99048.41
2022-11-01T15:17:33.080Z,99037.97
2022-11-01T15:20:03.207Z,99041.78
2022-11-01T15:22:33.712Z,99063.84
2022-11-01T15:25:05.510Z,99064.38
2022-11-01T15:27:42.084Z,99038.97
2022-11-01T15:30:24.643Z,99083.56
2022-11-01T15:32:53.952Z,99069.53
2022-11-01T15:35:26.028Z,99091.97
2022-11-01T15:37:54.465Z,99100.03
2022-11-01T15:40:27.864Z,99094.00
2022-11-01T15:43:02.326Z,99088.56
2022-11-01T15:45:31.080Z,99094.13
2022-11-01T15:48:06.020Z,99097.28
2022-11-01T15:50:36.834Z,99085.28
2022-11-01T15:53:10.149Z,99111.47
2022-11-01T15:55:39.953Z,99114.34
2022-11-01T15:58:15.793Z,99082.81
2022-11-01T16:00:46.306Z,99109.81
2022-11-01T16:03:27.518Z,99103.47
2022-11-01T16:05:59.789Z,99113.16
2022-11-01T16:08:35.261Z,99102.50
2022-11-01T16:11:02.234Z,99077.84
2022-11-01T16:13:31.081Z,99091.66
2022-11-01T16:16:10.935Z,99082.34
2022-11-01T16:18:40.506Z,99078.53
2022-11-01T16:21:28.265Z,99057.53
2022-11-01T16:24:03.985Z,99036.53
2022-11-01T16:26:33.401Z,98952.16
2022-11-01T16:28:59.804Z,98933.19
2022-11-01T16:31:28.885Z,98930.00
2022-11-01T16:33:57.026Z,98922.72
2022-11-01T16:36:33.118Z,98901.06
2022-11-01T16:38:59.529Z,98894.75
2022-11-01T16:41:39.704Z,98874.47
2022-11-01T16:44:16.006Z,98863.19
2022-11-01T16:46:42.699Z,98835.03
2022-11-01T16:49:21.067Z,98865.31
2022-11-01T16:51:47.646Z,98862.81
2022-11-01T16:54:14.127Z,98843.03
2022-11-01T16:56:44.630Z,98852.16
2022-11-01T16:59:34.321Z,98843.50
2022-11-01T17:02:02.492Z,98847.50
2022-11-01T17:04:29.621Z,98866.13
2022-11-01T17:06:58.769Z,98879.44
2022-11-01T17:09:29.286Z,98862.13
2022-11-01T17:11:55.847Z,98857.97
2022-11-01T17:14:22.390Z,98837.69
2022-11-01T17:16:51.353Z,98848.34
2022-11-01T17:19:32.033Z,98853.81
2022-11-01T17:22:05.576Z,98841.19
2022-11-01T17:24:33.337Z,98816.09
2022-11-01T17:27:04.987Z,98811.91
2022-11-01T17:29:33.043Z,98844.19
2022-11-01T17:32:00.999Z,98847.47
2022-11-01T17:34:28.868Z,98827.03
2022-11-01T17:36:57.252Z,98810.22
2022-11-01T17:39:29.184Z,98770.34
2022-11-01T17:41:56.167Z,98742.13
2022-11-01T17:44:23.155Z,98748.25
2022-11-01T17:46:49.607Z,98689.28
2022-11-01T17:49:16.747Z,98704.91
2022-11-01T17:51:43.280Z,98719.16
2022-11-01T17:54:10.631Z,98718.19
2022-11-01T17:56:37.204Z,98726.16
2022-11-01T17:59:03.813Z,98723.16
2022-11-01T18:01:30.469Z,98677.31
2022-11-01T18:03:56.990Z,98677.31
2022-11-01T18:06:23.878Z,98672.00
2022-11-01T18:08:51.546Z,98711.38
2022-11-01T18:11:39.490Z,98716.34
2022-11-01T18:14:19.919Z,98723.47
2022-11-01T18:16:49.228Z,98703.81
2022-11-01T18:19:34.960Z,98722.13
2022-11-01T18:22:13.027Z,98740.09
2022-11-01T18:24:46.590Z,98756.34
2022-11-01T18:27:13.734Z,98751.63
2022-11-01T18:29:45.072Z,98756.63
2022-11-01T18:32:23.101Z,98768.41
2022-11-01T18:35:03.422Z,98753.75
2022-11-01T18:37:47.078Z,98786.88
2022-11-01T18:40:23.162Z,98806.41
2022-11-01T18:42:51.257Z,98820.69
2022-11-01T18:45:31.027Z,98815.69
2022-11-01T18:48:12.879Z,98813.66
2022-11-01T18:50:39.384Z,98845.59
2022-11-01T18:53:05.924Z,98836.44
2022-11-01T18:55:33.353Z,98830.47
2022-11-01T18:58:13.647Z,98832.91
2022-11-01T19:00:40.927Z,98825.75
2022-11-01T19:03:15.256Z,98839.16
2022-11-01T19:05:41.946Z,98833.34
2022-11-01T19:08:22.617Z,98823.94
2022-11-01T19:10:49.538Z,98801.94
2022-11-01T19:13:34.145Z,98810.22
2022-11-01T19:16:01.950Z,98777.88
2022-11-01T19:18:28.882Z,98771.41
2022-11-01T19:20:57.980Z,98777.25
2022-11-01T19:23:40.315Z,98777.19
2022-11-01T19:26:25.808Z,98767.56
2022-11-01T19:28:53.323Z,98722.28
2022-11-01T19:31:39.273Z,98755.94
2022-11-01T19:34:13.573Z,98764.59
2022-11-01T19:36:44.507Z,98774.19
2022-11-01T19:39:24.756Z,98757.94
2022-11-01T19:41:53.142Z,98779.06
2022-11-01T19:44:22.497Z,98761.19
2022-11-01T19:46:52.257Z,98773.53
2022-11-01T19:49:25.235Z,98752.56
2022-11-01T19:52:12.220Z,98752.56
2022-11-01T19:54:41.475Z,98744.44
2022-11-01T19:57:28.439Z,98717.28
2022-11-01T20:00:14.819Z,98718.84
2022-11-01T20:02:41.333Z,98731.66
2022-11-01T20:05:25.583Z,98726.97
2022-11-01T20:08:00.532Z,98747.28
2022-11-01T20:10:27.323Z,98750.22
2022-11-01T20:12:53.727Z,98725.19
2022-11-01T20:15:20.118Z,98731.13
2022-11-01T20:17:46.616Z,98747.56
2022-11-01T20:20:14.456Z,98766.50
2022-11-01T20:22:42.043Z,98747.16
2022-11-01T20:25:10.301Z,98735.47
2022-11-01T20:27:36.688Z,98733.59
2022-11-01T20:30:03.603Z,98762.41
2022-11-01T20:32:30.142Z,98790.31
2022-11-01T20:34:57.747Z,98787.78
2022-11-01T20:37:29.055Z,98808.81
2022-11-01T20:39:55.966Z,98813.81
2022-11-01T20:42:22.853Z,98794.34
2022-11-01T20:44:49.990Z,98817.84
2022-11-01T20:47:16.414Z,98808.38
2022-11-01T20:49:42.864Z,98800.53
2022-11-01T20:52:33.746Z,98818.03
2022-11-01T20:54:55.658Z,98782.56
2022-11-01T20:57:28.031Z,98812.28
2022-11-01T20:59:55.660Z,98808.75
2022-11-01T21:02:22.588Z,98809.94
2022-11-01T21:04:59.576Z,98818.53
2022-11-01T21:07:29.999Z,98815.94
2022-11-01T21:09:56.928Z,98823.00
2022-11-01T21:12:49.591Z,98853.06
2022-11-01T21:15:28.367Z,98847.00
2022-11-01T21:18:22.993Z,98848.91
2022-11-01T21:20:49.622Z,98855.34
2022-11-01T21:23:32.262Z,98863.97
2022-11-01T21:26:10.642Z,98811.38
2022-11-01T21:28:47.737Z,98859.81
2022-11-01T21:31:14.023Z,98862.47
2022-11-01T21:33:51.110Z,98855.72
2022-11-01T21:36:20.483Z,98861.13
2022-11-01T21:39:11.083Z,98862.00
2022-11-01T21:41:45.923Z,98856.63
2022-11-01T21:44:18.126Z,98842.41
2022-11-01T21:46:53.760Z,98842.69
2022-11-01T21:49:38.211Z,98837.00
2022-11-01T21:52:07.075Z,98845.94
2022-11-01T21:54:35.577Z,98834.38
2022-11-01T21:57:03.137Z,98844.28
2022-11-01T21:59:30.211Z,98844.97
2022-11-01T22:01:57.975Z,98835.66
2022-11-01T22:04:28.492Z,98806.25
2022-11-01T22:06:56.554Z,98816.47
2022-11-01T22:09:23.273Z,98795.75
2022-11-01T22:11:49.730Z,98798.31
2022-11-01T22:14:16.103Z,98795.28
2022-11-01T22:16:42.517Z,98797.41
2022-11-01T22:19:09.329Z,98810.41
2022-11-01T22:21:35.864Z,98802.31
2022-11-01T22:24:03.358Z,98805.56
2022-11-01T22:26:29.775Z,98788.97
2022-11-01T22:28:56.223Z,98783.97
2022-11-01T22:31:23.256Z,98803.91
2022-11-01T22:33:54.852Z,98804.47
2022-11-01T22:36:25.274Z,98786.16
2022-11-01T22:39:01.100Z,98819.91
2022-11-01T22:41:32.726Z,98804.38
2022-11-01T22:44:04.403Z,98821.47
2022-11-01T22:46:43.591Z,98815.13
2022-11-01T22:49:22.445Z,98816.19
2022-11-01T22:51:59.888Z,98830.84
2022-11-01T22:54:38.920Z,98859.03
2022-11-01T22:57:08.264Z,98870.22
2022-11-01T23:00:00.742Z,98861.66
2022-11-01T23:02:30.088Z,98879.31
2022-11-01T23:05:02.625Z,98895.06
2022-11-01T23:07:34.738Z,98891.31
2022-11-01T23:10:07.103Z,98882.97
2022-11-01T23:12:54.816Z,98882.00
2022-11-01T23:15:30.060Z,98905.00
2022-11-01T23:18:12.954Z,98876.31
2022-11-01T23:20:40.722Z,98900.97
2022-11-01T23:23:18.550Z,98898.03
2022-11-01T23:25:45.166Z,98883.34
2022-11-01T23:28:12.982Z,98876.84
2022-11-01T23:30:41.716Z,98863.63
2022-11-01T23:33:17.411Z,98885.41
2022-11-01T23:35:52.019Z,98901.41
2022-11-01T23:38:22.814Z,98900.69
2022-11-01T23:40:53.268Z,98898.66
2022-11-01T23:43:36.060Z,98886.56
2022-11-01T23:46:02.553Z,98883.34
2022-11-01T23:48:29.266Z,98865.56
2022-11-01T23:50:56.550Z,98892.63
2022-11-01T23:53:31.987Z,98853.72
2022-11-01T23:56:00.018Z,98882.09
